createdAt,value
2018-06-27T00:00:49.978Z,14.64
2018-06-27T00:01:49.976Z,14.65
2018-06-27T00:02:49.972Z,14.69
2018-06-27T00:03:49.937Z,14.61
2018-06-27T00:04:49.921Z,14.62
2018-06-27T00:05:49.907Z,14.65
2018-06-27T00:06:49.895Z,14.68
2018-06-27T00:07:49.915Z,14.62
2018-06-27T00:08:49.864Z,14.61
2018-06-27T00:09:49.859Z,14.50
2018-06-27T00:10:49.837Z,14.54
2018-06-27T00:11:49.824Z,14.51
2018-06-27T00:12:49.808Z,14.39
2018-06-27T00:13:49.808Z,14.45
2018-06-27T00:14:49.779Z,14.40
2018-06-27T00:15:49.767Z,14.37
2018-06-27T00:16:49.754Z,14.33
2018-06-27T00:17:49.738Z,14.35
2018-06-27T00:18:49.722Z,14.37
2018-06-27T00:19:49.722Z,14.24
2018-06-27T00:20:49.698Z,14.17
2018-06-27T00:21:49.713Z,14.29
2018-06-27T00:22:49.661Z,14.20
2018-06-27T00:23:49.652Z,14.20
2018-06-27T00:24:49.639Z,14.15
2018-06-27T00:25:49.617Z,14.10
2018-06-27T00:26:49.605Z,14.10
2018-06-27T00:27:49.613Z,14.09
2018-06-27T00:28:49.601Z,14.04
2018-06-27T00:29:49.580Z,14.09
2018-06-27T00:30:49.554Z,13.96
2018-06-27T00:31:49.537Z,13.95
2018-06-27T00:32:49.522Z,13.91
2018-06-27T00:33:49.571Z,13.96
2018-06-27T00:34:49.511Z,14.02
2018-06-27T00:35:49.480Z,13.95
2018-06-27T00:36:49.468Z,13.96
2018-06-27T00:37:49.447Z,13.95
2018-06-27T00:38:49.434Z,13.91
2018-06-27T00:39:49.436Z,13.88
2018-06-27T00:40:50.339Z,13.79
2018-06-27T00:41:49.393Z,13.82
2018-06-27T00:42:52.302Z,13.79
2018-06-27T00:43:49.362Z,13.79
2018-06-27T00:44:49.361Z,13.81
2018-06-27T00:45:49.357Z,13.82
2018-06-27T00:46:49.317Z,13.81
2018-06-27T00:47:49.304Z,13.85
2018-06-27T00:48:49.297Z,13.81
2018-06-27T00:49:49.286Z,13.79
2018-06-27T00:50:49.264Z,13.75
2018-06-27T00:51:49.261Z,13.79
2018-06-27T00:52:49.232Z,13.79
2018-06-27T00:53:49.213Z,13.66
2018-06-27T00:54:49.203Z,13.78
2018-06-27T00:55:49.187Z,13.78
2018-06-27T00:56:49.192Z,13.84
2018-06-27T00:57:49.158Z,13.78
2018-06-27T00:58:49.145Z,13.85
2018-06-27T00:59:49.130Z,13.77
2018-06-27T01:00:49.120Z,13.70
2018-06-27T01:01:49.099Z,13.73
2018-06-27T01:02:49.100Z,13.73
2018-06-27T01:03:49.071Z,13.67
2018-06-27T01:04:49.055Z,13.62
2018-06-27T01:05:49.041Z,13.67
2018-06-27T01:06:49.042Z,13.75
2018-06-27T01:07:49.035Z,13.59
2018-06-27T01:08:49.014Z,13.63
2018-06-27T01:09:48.980Z,13.52
2018-06-27T01:10:48.965Z,13.57
2018-06-27T01:11:48.961Z,13.49
2018-06-27T01:12:48.952Z,13.51
2018-06-27T01:13:48.939Z,13.48
2018-06-27T01:14:48.907Z,13.52
2018-06-27T01:15:48.890Z,13.52
2018-06-27T01:16:48.888Z,13.46
2018-06-27T01:17:48.880Z,13.48
2018-06-27T01:18:49.390Z,13.45
2018-06-27T01:19:48.851Z,13.39
2018-06-27T01:20:48.829Z,13.48
2018-06-27T01:21:48.800Z,13.49
2018-06-27T01:22:48.784Z,13.46
2018-06-27T01:23:48.790Z,13.54
2018-06-27T01:24:48.768Z,13.60
2018-06-27T01:25:48.745Z,13.54
2018-06-27T01:26:48.729Z,13.54
2018-06-27T01:27:48.729Z,13.51
2018-06-27T01:28:48.704Z,13.52
2018-06-27T01:29:48.710Z,13.60
2018-06-27T01:30:48.667Z,13.52
2018-06-27T01:31:48.676Z,13.46
2018-06-27T01:32:48.635Z,13.49
2018-06-27T01:33:48.626Z,13.51
2018-06-27T01:34:48.617Z,13.48
2018-06-27T01:35:48.608Z,13.42
2018-06-27T01:36:48.578Z,13.45
2018-06-27T01:37:48.563Z,13.44
2018-06-27T01:38:48.553Z,13.46
2018-06-27T01:39:48.552Z,13.48
2018-06-27T01:40:48.515Z,13.46
2018-06-27T01:41:48.509Z,13.36
2018-06-27T01:42:48.487Z,13.39
2018-06-27T01:43:48.480Z,13.44
2018-06-27T01:44:48.461Z,13.42
2018-06-27T01:45:48.454Z,13.39
2018-06-27T01:46:48.448Z,13.39
2018-06-27T01:47:48.420Z,13.42
2018-06-27T01:48:48.399Z,13.41
2018-06-27T01:49:48.381Z,13.44
2018-06-27T01:50:48.382Z,13.46
2018-06-27T01:51:48.354Z,13.45
2018-06-27T01:52:48.357Z,13.33
2018-06-27T01:53:48.320Z,13.46
2018-06-27T01:54:48.313Z,13.44
2018-06-27T01:55:48.311Z,13.42
2018-06-27T01:56:48.320Z,13.39
2018-06-27T01:57:48.266Z,13.54
2018-06-27T01:58:48.251Z,13.48
2018-06-27T01:59:48.241Z,13.46
2018-06-27T02:00:48.215Z,13.49
2018-06-27T02:01:48.209Z,13.63
2018-06-27T02:02:48.215Z,13.63
2018-06-27T02:03:48.177Z,13.64
2018-06-27T02:04:48.161Z,13.57
2018-06-27T02:05:48.146Z,13.66
2018-06-27T02:06:48.133Z,13.63
2018-06-27T02:07:48.135Z,13.71
2018-06-27T02:08:56.414Z,13.64
2018-06-27T02:09:48.086Z,13.71
2018-06-27T02:10:48.073Z,13.75
2018-06-27T02:11:48.055Z,13.75
2018-06-27T02:12:48.107Z,13.78
2018-06-27T02:13:48.020Z,13.66
2018-06-27T02:14:48.010Z,13.71
2018-06-27T02:15:47.992Z,13.82
2018-06-27T02:16:47.980Z,13.82
2018-06-27T02:17:47.977Z,13.85
2018-06-27T02:18:47.966Z,13.79
2018-06-27T02:19:47.941Z,13.84
2018-06-27T02:20:47.920Z,13.79
2018-06-27T02:21:47.900Z,13.79
2018-06-27T02:22:47.916Z,13.78
2018-06-27T02:23:47.874Z,13.81
2018-06-27T02:24:47.862Z,13.88
2018-06-27T02:25:47.846Z,13.89
2018-06-27T02:26:47.828Z,13.91
2018-06-27T02:27:47.818Z,13.88
2018-06-27T02:28:47.818Z,13.96
2018-06-27T02:29:47.804Z,13.88
2018-06-27T02:30:47.771Z,13.88
2018-06-27T02:31:47.759Z,13.79
2018-06-27T02:32:47.744Z,13.78
2018-06-27T02:33:47.734Z,13.70
2018-06-27T02:34:47.711Z,13.81
2018-06-27T02:35:47.695Z,13.88
2018-06-27T02:36:47.682Z,13.81
2018-06-27T02:37:47.666Z,13.78
2018-06-27T02:38:47.667Z,13.82
2018-06-27T02:39:47.647Z,13.84
2018-06-27T02:40:47.625Z,13.81
2018-06-27T02:41:47.609Z,13.79
2018-06-27T02:42:47.598Z,13.87
2018-06-27T02:43:47.575Z,13.81
2018-06-27T02:44:47.580Z,13.84
2018-06-27T02:45:48.395Z,13.79
2018-06-27T02:46:47.535Z,13.75
2018-06-27T02:47:47.520Z,13.85
2018-06-27T02:48:47.500Z,13.78
2018-06-27T02:49:47.542Z,13.87
2018-06-27T02:50:47.505Z,13.79
2018-06-27T02:51:48.355Z,13.78
2018-06-27T02:52:47.438Z,13.81
2018-06-27T02:53:47.433Z,13.84
2018-06-27T02:54:47.405Z,13.79
2018-06-27T02:55:47.414Z,13.78
2018-06-27T02:56:47.414Z,13.79
2018-06-27T02:57:47.364Z,13.84
2018-06-27T02:58:47.356Z,13.84
2018-06-27T02:59:47.332Z,13.82
2018-06-27T03:00:47.321Z,13.70
2018-06-27T03:01:47.307Z,13.69
2018-06-27T03:02:47.309Z,13.69
2018-06-27T03:03:47.290Z,13.70
2018-06-27T03:04:47.265Z,13.67
2018-06-27T03:05:47.241Z,13.66
2018-06-27T03:06:47.232Z,13.63
2018-06-27T03:07:47.238Z,13.55
2018-06-27T03:08:47.199Z,13.48
2018-06-27T03:09:47.184Z,13.48
2018-06-27T03:10:47.191Z,13.45
2018-06-27T03:11:47.156Z,13.39
2018-06-27T03:12:47.142Z,13.33
2018-06-27T03:13:47.144Z,13.32
2018-06-27T03:14:47.117Z,13.32
2018-06-27T03:15:47.091Z,13.28
2018-06-27T03:16:47.082Z,13.28
2018-06-27T03:17:47.066Z,13.19
2018-06-27T03:18:47.068Z,13.22
2018-06-27T03:19:47.037Z,13.14
2018-06-27T03:20:47.019Z,13.28
2018-06-27T03:21:47.007Z,13.14
2018-06-27T03:22:47.005Z,13.14
2018-06-27T03:23:47.011Z,13.11
2018-06-27T03:24:46.956Z,13.08
2018-06-27T03:25:46.947Z,13.10
2018-06-27T03:26:46.932Z,13.12
2018-06-27T03:27:46.913Z,13.11
2018-06-27T03:28:46.900Z,13.11
2018-06-27T03:29:46.922Z,13.15
2018-06-27T03:30:46.877Z,13.08
2018-06-27T03:31:46.851Z,13.10
2018-06-27T03:32:46.838Z,13.05
2018-06-27T03:33:46.886Z,13.07
2018-06-27T03:34:46.812Z,13.07
2018-06-27T03:35:46.815Z,13.08
2018-06-27T03:36:46.776Z,13.11
2018-06-27T03:37:46.766Z,13.11
2018-06-27T03:38:46.756Z,13.10
2018-06-27T03:39:46.748Z,13.11
2018-06-27T03:40:46.726Z,13.19
2018-06-27T03:41:46.697Z,13.14
2018-06-27T03:42:47.396Z,13.14
2018-06-27T03:43:46.675Z,13.14
2018-06-27T03:44:46.656Z,13.07
2018-06-27T03:45:46.657Z,13.07
2018-06-27T03:46:46.627Z,13.07
2018-06-27T03:47:46.621Z,13.12
2018-06-27T03:48:46.595Z,13.19
2018-06-27T03:49:46.580Z,13.19
2018-06-27T03:50:46.595Z,13.23
2018-06-27T03:51:46.547Z,13.20
2018-06-27T03:52:46.537Z,13.19
2018-06-27T03:53:46.519Z,13.17
2018-06-27T03:54:46.505Z,13.20
2018-06-27T03:55:46.493Z,13.11
2018-06-27T03:56:46.496Z,13.22
2018-06-27T03:57:46.460Z,13.20
2018-06-27T03:58:46.447Z,13.15
2018-06-27T03:59:46.426Z,13.15
2018-06-27T04:00:46.416Z,13.14
2018-06-27T04:01:46.420Z,13.15
2018-06-27T04:02:46.384Z,13.19
2018-06-27T04:03:46.368Z,13.26
2018-06-27T04:04:46.351Z,13.29
2018-06-27T04:05:46.341Z,13.32
2018-06-27T04:06:47.372Z,13.26
2018-06-27T04:07:46.336Z,13.33
2018-06-27T04:08:46.304Z,13.38
2018-06-27T04:09:46.296Z,13.41
2018-06-27T04:10:46.260Z,13.46
2018-06-27T04:11:46.253Z,13.41
2018-06-27T04:12:46.375Z,13.45
2018-06-27T04:13:46.215Z,13.44
2018-06-27T04:14:46.199Z,13.52
2018-06-27T04:15:46.199Z,13.45
2018-06-27T04:16:46.176Z,13.46
2018-06-27T04:17:46.180Z,13.54
2018-06-27T04:18:46.139Z,13.52
2018-06-27T04:19:46.127Z,13.62
2018-06-27T04:20:46.112Z,13.60
2018-06-27T04:21:46.106Z,13.66
2018-06-27T04:22:46.083Z,13.71
2018-06-27T04:23:46.091Z,13.79
2018-06-27T04:24:46.054Z,13.77
2018-06-27T04:25:46.035Z,13.82
2018-06-27T04:26:46.025Z,13.85
2018-06-27T04:27:46.013Z,13.99
2018-06-27T04:28:45.997Z,13.96
2018-06-27T04:29:45.996Z,14.03
2018-06-27T04:30:45.965Z,14.09
2018-06-27T04:31:45.946Z,14.17
2018-06-27T04:32:45.937Z,14.17
2018-06-27T04:33:45.929Z,14.28
2018-06-27T04:34:45.990Z,14.18
2018-06-27T04:35:45.963Z,14.21
2018-06-27T04:36:45.896Z,14.32
2018-06-27T04:37:45.972Z,14.36
2018-06-27T04:38:45.857Z,14.50
2018-06-27T04:39:45.847Z,14.46
2018-06-27T04:40:45.814Z,14.62
2018-06-27T04:41:45.801Z,14.77
2018-06-27T04:42:45.780Z,14.84
2018-06-27T04:43:45.786Z,14.89
2018-06-27T04:44:45.797Z,15.07
2018-06-27T04:45:45.764Z,15.19
2018-06-27T04:46:45.727Z,15.49
2018-06-27T04:47:45.708Z,15.68
2018-06-27T04:48:45.713Z,15.86
2018-06-27T04:49:45.702Z,16.02
2018-06-27T04:50:45.674Z,16.31
2018-06-27T04:51:45.654Z,16.45
2018-06-27T04:52:45.665Z,16.52
2018-06-27T04:53:45.620Z,16.63
2018-06-27T04:54:45.641Z,16.83
2018-06-27T04:55:45.597Z,16.86
2018-06-27T04:56:45.593Z,16.88
2018-06-27T04:57:45.565Z,17.04
2018-06-27T04:58:46.381Z,17.14
2018-06-27T04:59:45.569Z,17.28
2018-06-27T05:00:45.553Z,17.38
2018-06-27T05:01:45.521Z,17.44
2018-06-27T05:02:45.497Z,17.44
2018-06-27T05:03:45.492Z,17.41
2018-06-27T05:04:45.472Z,17.41
2018-06-27T05:05:45.481Z,17.34
2018-06-27T05:06:45.468Z,17.23
2018-06-27T05:07:45.442Z,17.22
2018-06-27T05:08:45.415Z,17.15
2018-06-27T05:09:45.477Z,17.15
2018-06-27T05:10:45.412Z,17.15
2018-06-27T05:11:45.396Z,17.07
2018-06-27T05:12:45.385Z,17.06
2018-06-27T05:13:45.368Z,17.07
2018-06-27T05:14:45.364Z,17.04
2018-06-27T05:15:45.376Z,17.11
2018-06-27T05:16:47.029Z,17.08
2018-06-27T05:17:45.306Z,17.12
2018-06-27T05:18:45.303Z,17.15
2018-06-27T05:19:45.273Z,17.12
2018-06-27T05:20:45.282Z,17.08
2018-06-27T05:21:45.294Z,17.12
2018-06-27T05:22:45.257Z,17.08
2018-06-27T05:23:45.226Z,17.14
2018-06-27T05:24:45.225Z,17.22
2018-06-27T05:25:45.202Z,17.22
2018-06-27T05:26:45.202Z,17.12
2018-06-27T05:27:45.202Z,17.08
2018-06-27T05:28:45.162Z,17.08
2018-06-27T05:29:45.158Z,17.07
2018-06-27T05:30:45.139Z,16.93
2018-06-27T05:31:45.121Z,16.94
2018-06-27T05:32:45.140Z,16.79
2018-06-27T05:33:45.097Z,16.83
2018-06-27T05:34:45.096Z,16.98
2018-06-27T05:35:45.078Z,16.98
2018-06-27T05:36:45.060Z,16.97
2018-06-27T05:37:45.048Z,17.01
2018-06-27T05:38:45.054Z,17.11
2018-06-27T05:39:45.021Z,17.11
2018-06-27T05:40:45.022Z,17.18
2018-06-27T05:41:45.006Z,17.23
2018-06-27T05:42:44.989Z,17.22
2018-06-27T05:43:44.989Z,17.21
2018-06-27T05:44:44.958Z,17.01
2018-06-27T05:45:44.957Z,16.94
2018-06-27T05:46:44.936Z,16.86
2018-06-27T05:47:44.922Z,16.88
2018-06-27T05:48:44.942Z,16.89
2018-06-27T05:49:44.993Z,16.98
2018-06-27T05:50:44.889Z,16.98
2018-06-27T05:51:44.871Z,17.14
2018-06-27T05:52:44.913Z,17.11
2018-06-27T05:53:44.841Z,17.16
2018-06-27T05:54:44.851Z,17.19
2018-06-27T05:55:44.820Z,17.21
2018-06-27T05:56:44.839Z,17.19
2018-06-27T05:57:44.793Z,16.94
2018-06-27T05:58:44.781Z,16.96
2018-06-27T05:59:44.766Z,16.93
2018-06-27T06:00:44.766Z,16.85
2018-06-27T06:01:44.740Z,16.76
2018-06-27T06:02:44.726Z,16.67
2018-06-27T06:03:44.713Z,16.67
2018-06-27T06:04:44.717Z,16.53
2018-06-27T06:05:44.724Z,16.66
2018-06-27T06:06:44.674Z,16.61
2018-06-27T06:07:44.673Z,16.67
2018-06-27T06:08:44.651Z,16.73
2018-06-27T06:09:44.631Z,16.85
2018-06-27T06:10:44.621Z,17.08
2018-06-27T06:11:44.626Z,17.18
2018-06-27T06:12:44.596Z,17.40
2018-06-27T06:13:45.440Z,17.55
2018-06-27T06:14:44.569Z,17.51
2018-06-27T06:15:45.401Z,17.71
2018-06-27T06:16:44.565Z,17.74
2018-06-27T06:17:44.531Z,17.63
2018-06-27T06:18:44.518Z,17.56
2018-06-27T06:19:44.566Z,17.48
2018-06-27T06:20:44.496Z,17.51
2018-06-27T06:21:44.514Z,17.54
2018-06-27T06:22:44.466Z,17.70
2018-06-27T06:23:44.465Z,17.84
2018-06-27T06:24:44.441Z,17.93
2018-06-27T06:25:44.462Z,18.02
2018-06-27T06:26:44.433Z,18.15
2018-06-27T06:27:44.414Z,18.18
2018-06-27T06:28:44.390Z,18.11
2018-06-27T06:29:44.379Z,18.02
2018-06-27T06:30:44.365Z,18.02
2018-06-27T06:31:44.370Z,18.14
2018-06-27T06:32:44.357Z,18.25
2018-06-27T06:33:44.329Z,18.17
2018-06-27T06:34:44.313Z,18.27
2018-06-27T06:35:44.309Z,18.36
2018-06-27T06:36:44.323Z,18.50
2018-06-27T06:37:44.269Z,18.54
2018-06-27T06:38:44.266Z,18.47
2018-06-27T06:39:44.250Z,18.29
2018-06-27T06:40:44.248Z,18.41
2018-06-27T06:41:44.227Z,18.32
2018-06-27T06:42:44.230Z,18.29
2018-06-27T06:43:44.911Z,18.45
2018-06-27T06:44:44.184Z,18.45
2018-06-27T06:45:44.168Z,18.51
2018-06-27T06:46:44.162Z,18.51
2018-06-27T06:47:44.189Z,18.47
2018-06-27T06:48:44.146Z,18.41
2018-06-27T06:49:44.141Z,18.41
2018-06-27T06:50:44.117Z,18.32
2018-06-27T06:51:44.095Z,18.48
2018-06-27T06:52:44.084Z,18.60
2018-06-27T06:53:44.092Z,18.55
2018-06-27T06:54:44.063Z,18.67
2018-06-27T06:55:44.048Z,18.76
2018-06-27T06:56:44.035Z,18.75
2018-06-27T06:57:44.025Z,18.87
2018-06-27T06:58:44.057Z,18.90
2018-06-27T06:59:44.002Z,19.02
2018-06-27T07:00:43.987Z,19.00
2018-06-27T07:01:43.970Z,19.07
2018-06-27T07:02:43.959Z,19.22
2018-06-27T07:03:43.949Z,19.33
2018-06-27T07:04:43.957Z,19.44
2018-06-27T07:05:43.938Z,19.50
2018-06-27T07:06:43.932Z,19.56
2018-06-27T07:07:43.901Z,19.59
2018-06-27T07:08:43.889Z,19.54
2018-06-27T07:09:43.879Z,19.54
2018-06-27T07:10:43.875Z,19.65
2018-06-27T07:11:43.850Z,19.71
2018-06-27T07:12:43.859Z,19.65
2018-06-27T07:13:43.824Z,19.83
2018-06-27T07:14:44.498Z,19.86
2018-06-27T07:15:43.815Z,19.81
2018-06-27T07:16:43.807Z,19.73
2018-06-27T07:17:43.789Z,19.76
2018-06-27T07:18:43.767Z,19.76
2018-06-27T07:19:43.772Z,19.71
2018-06-27T07:20:43.744Z,19.73
2018-06-27T07:21:43.741Z,19.77
2018-06-27T07:22:43.718Z,19.80
2018-06-27T07:23:43.710Z,19.77
2018-06-27T07:24:43.710Z,19.84
2018-06-27T07:25:43.684Z,20.01
2018-06-27T07:26:43.674Z,20.01
2018-06-27T07:27:43.655Z,20.08
2018-06-27T07:28:43.775Z,20.06
2018-06-27T07:29:43.635Z,20.05
2018-06-27T07:30:43.661Z,20.01
2018-06-27T07:31:43.612Z,20.13
2018-06-27T07:32:43.621Z,20.11
2018-06-27T07:33:43.584Z,20.17
2018-06-27T07:34:43.577Z,20.08
2018-06-27T07:35:43.582Z,19.96
2018-06-27T07:36:43.552Z,20.08
2018-06-27T07:37:43.557Z,20.08
2018-06-27T07:38:43.530Z,20.13
2018-06-27T07:39:43.520Z,20.14
2018-06-27T07:40:43.515Z,20.17
2018-06-27T07:41:43.486Z,20.29
2018-06-27T07:42:43.485Z,20.23
2018-06-27T07:43:43.496Z,20.39
2018-06-27T07:44:43.463Z,20.50
2018-06-27T07:45:43.453Z,20.51
2018-06-27T07:46:43.959Z,20.64
2018-06-27T07:47:43.426Z,20.72
2018-06-27T07:48:43.440Z,20.66
2018-06-27T07:49:43.415Z,20.70
2018-06-27T07:50:43.389Z,20.74
2018-06-27T07:51:43.378Z,20.84
2018-06-27T07:52:43.365Z,20.89
2018-06-27T07:53:43.389Z,20.89
2018-06-27T07:54:43.358Z,20.89
2018-06-27T07:55:43.336Z,21.04
2018-06-27T07:56:43.336Z,21.09
2018-06-27T07:57:43.315Z,21.21
2018-06-27T07:58:43.298Z,21.27
2018-06-27T07:59:43.298Z,21.29
2018-06-27T08:00:43.277Z,21.29
2018-06-27T08:01:43.274Z,21.14
2018-06-27T08:02:43.249Z,21.22
2018-06-27T08:03:43.241Z,21.16
2018-06-27T08:04:43.247Z,21.16
2018-06-27T08:05:43.212Z,21.22
2018-06-27T08:06:43.208Z,21.27
2018-06-27T08:07:43.214Z,21.32
2018-06-27T08:08:43.183Z,21.35
2018-06-27T08:09:43.189Z,21.22
2018-06-27T08:10:43.162Z,21.27
2018-06-27T08:11:43.150Z,21.35
2018-06-27T08:12:43.212Z,21.35
2018-06-27T08:13:43.127Z,21.43
2018-06-27T08:14:43.109Z,21.44
2018-06-27T08:15:43.132Z,21.61
2018-06-27T08:16:43.093Z,21.71
2018-06-27T08:17:43.168Z,21.75
2018-06-27T08:18:43.069Z,21.88
2018-06-27T08:19:43.066Z,21.88
2018-06-27T08:20:43.074Z,21.90
2018-06-27T08:21:43.038Z,21.71
2018-06-27T08:22:43.024Z,21.80
2018-06-27T08:23:43.031Z,21.91
2018-06-27T08:24:43.973Z,21.92
2018-06-27T08:25:42.997Z,22.00
2018-06-27T08:26:42.977Z,22.00
2018-06-27T08:27:42.966Z,21.99
2018-06-27T08:28:42.971Z,22.00
2018-06-27T08:29:42.957Z,21.91
2018-06-27T08:30:43.022Z,22.05
2018-06-27T08:31:42.929Z,21.99
2018-06-27T08:32:42.915Z,21.98
2018-06-27T08:33:42.905Z,21.99
2018-06-27T08:34:42.909Z,22.10
2018-06-27T08:35:42.879Z,22.09
2018-06-27T08:36:42.872Z,22.28
2018-06-27T08:37:42.852Z,22.27
2018-06-27T08:38:42.862Z,22.39
2018-06-27T08:39:42.837Z,22.36
2018-06-27T08:40:42.827Z,22.45
2018-06-27T08:41:42.816Z,22.46
2018-06-27T08:42:42.821Z,22.61
2018-06-27T08:43:42.825Z,22.70
2018-06-27T08:44:42.783Z,22.70
2018-06-27T08:45:42.766Z,22.79
2018-06-27T08:46:42.768Z,22.83
2018-06-27T08:48:03.768Z,22.88
2018-06-27T08:48:42.743Z,23.04
2018-06-27T08:49:42.735Z,23.17
2018-06-27T08:50:42.718Z,23.31
2018-06-27T08:51:42.712Z,23.43
2018-06-27T08:52:42.714Z,23.58
2018-06-27T08:53:42.683Z,23.80
2018-06-27T08:54:42.672Z,24.10
2018-06-27T08:55:42.667Z,24.40
2018-06-27T08:56:42.674Z,24.61
2018-06-27T08:57:42.644Z,24.83
2018-06-27T08:58:42.707Z,24.99
2018-06-27T08:59:42.628Z,25.30
2018-06-27T09:00:42.610Z,25.39
2018-06-27T09:01:42.609Z,25.88
2018-06-27T09:02:42.606Z,26.05
2018-06-27T09:03:42.610Z,26.52
2018-06-27T09:04:42.575Z,26.80
2018-06-27T09:05:42.558Z,27.34
2018-06-27T09:06:42.552Z,27.63
2018-06-27T09:07:42.607Z,27.99
2018-06-27T09:08:42.529Z,27.92
2018-06-27T09:09:42.551Z,27.54
2018-06-27T09:10:42.542Z,26.94
2018-06-27T09:11:42.498Z,27.40
2018-06-27T09:12:42.510Z,27.72
2018-06-27T09:13:42.482Z,27.94
2018-06-27T09:14:42.469Z,28.14
2018-06-27T09:15:42.462Z,28.22
2018-06-27T09:16:42.456Z,28.59
2018-06-27T09:17:42.460Z,28.48
2018-06-27T09:18:42.506Z,28.74
2018-06-27T09:19:42.430Z,29.08
2018-06-27T09:20:42.422Z,29.05
2018-06-27T09:21:42.412Z,29.08
2018-06-27T09:22:42.421Z,29.02
2018-06-27T09:23:42.392Z,29.11
2018-06-27T09:24:42.394Z,28.85
2018-06-27T09:25:42.383Z,28.85
2018-06-27T09:26:42.376Z,29.14
2018-06-27T09:27:42.384Z,29.21
2018-06-27T09:28:42.380Z,29.30
2018-06-27T09:29:42.358Z,29.55
2018-06-27T09:30:42.348Z,29.70
2018-06-27T09:31:42.363Z,30.04
2018-06-27T09:32:42.344Z,30.22
2018-06-27T09:33:42.348Z,30.08
2018-06-27T09:34:42.344Z,30.11
2018-06-27T09:35:42.325Z,30.11
2018-06-27T09:36:42.323Z,30.29
2018-06-27T09:37:42.331Z,30.53
2018-06-27T09:38:42.353Z,30.75
2018-06-27T09:39:42.327Z,30.75
2018-06-27T09:40:42.317Z,30.91
2018-06-27T09:41:42.326Z,30.42
2018-06-27T09:42:42.300Z,30.75
2018-06-27T09:43:42.305Z,30.92
2018-06-27T09:44:42.321Z,31.16
2018-06-27T09:45:42.302Z,31.36
2018-06-27T09:46:42.303Z,31.43
2018-06-27T09:47:42.291Z,31.06
2018-06-27T09:48:42.293Z,31.01
2018-06-27T09:49:42.307Z,31.09
2018-06-27T09:50:42.288Z,31.13
2018-06-27T09:51:42.293Z,30.95
2018-06-27T09:52:42.289Z,30.73
2018-06-27T09:53:46.494Z,30.84
2018-06-27T09:54:42.328Z,30.67
2018-06-27T09:55:42.297Z,30.61
2018-06-27T09:56:44.806Z,30.92
2018-06-27T09:57:42.285Z,31.09
2018-06-27T09:58:42.287Z,31.06
2018-06-27T09:59:42.307Z,31.47
2018-06-27T10:00:42.291Z,31.53
2018-06-27T10:01:42.291Z,31.66
2018-06-27T10:02:42.275Z,31.20
2018-06-27T10:03:42.277Z,31.31
2018-06-27T10:04:42.297Z,31.44
2018-06-27T10:05:42.297Z,31.47
2018-06-27T10:06:42.280Z,31.58
2018-06-27T10:07:42.310Z,31.76
2018-06-27T10:08:42.278Z,31.58
2018-06-27T10:09:42.283Z,31.48
2018-06-27T10:10:42.292Z,31.41
2018-06-27T10:11:42.293Z,31.66
2018-06-27T10:12:42.280Z,31.84
2018-06-27T10:13:42.279Z,31.92
2018-06-27T10:14:42.344Z,31.85
2018-06-27T10:15:42.299Z,31.84
2018-06-27T10:16:42.283Z,31.99
2018-06-27T10:17:42.309Z,31.93
2018-06-27T10:18:42.295Z,32.03
2018-06-27T10:19:42.287Z,32.03
2018-06-27T10:20:42.308Z,32.23
2018-06-27T10:21:42.291Z,32.52
2018-06-27T10:22:42.312Z,31.51
2018-06-27T10:23:42.321Z,30.45
2018-06-27T10:24:42.308Z,30.62
2018-06-27T10:25:42.299Z,31.07
2018-06-27T10:26:42.294Z,31.23
2018-06-27T10:27:42.293Z,31.38
2018-06-27T10:28:42.384Z,31.23
2018-06-27T10:29:42.327Z,31.58
2018-06-27T10:30:42.305Z,31.86
2018-06-27T10:31:42.346Z,32.07
2018-06-27T10:32:42.356Z,32.10
2018-06-27T10:33:42.428Z,31.58
2018-06-27T10:34:42.330Z,31.95
2018-06-27T10:35:42.451Z,32.13
2018-06-27T10:36:42.341Z,32.38
2018-06-27T10:37:42.325Z,32.44
2018-06-27T10:38:42.344Z,32.22
2018-06-27T10:39:42.393Z,32.32
2018-06-27T10:40:42.378Z,31.89
2018-06-27T10:41:42.356Z,32.06
2018-06-27T10:42:42.335Z,32.28
2018-06-27T10:43:42.904Z,32.32
2018-06-27T10:44:42.351Z,32.41
2018-06-27T10:45:42.340Z,32.22
2018-06-27T10:46:42.344Z,32.35
2018-06-27T10:47:42.341Z,32.21
2018-06-27T10:48:42.359Z,31.48
2018-06-27T10:49:42.361Z,31.70
2018-06-27T10:50:42.350Z,31.53
2018-06-27T10:51:42.343Z,30.72
2018-06-27T10:52:42.361Z,30.79
2018-06-27T10:53:42.342Z,30.45
2018-06-27T10:54:42.357Z,30.98
2018-06-27T10:55:42.340Z,31.17
2018-06-27T10:56:42.351Z,31.53
2018-06-27T10:57:42.345Z,31.89
2018-06-27T10:58:42.370Z,31.92
2018-06-27T10:59:42.380Z,31.75
2018-06-27T11:00:42.361Z,31.88
2018-06-27T11:01:42.361Z,32.03
2018-06-27T11:02:42.358Z,32.21
2018-06-27T11:03:42.383Z,32.48
2018-06-27T11:04:42.394Z,32.72
2018-06-27T11:05:42.373Z,32.15
2018-06-27T11:06:42.366Z,32.15
2018-06-27T11:07:42.382Z,32.30
2018-06-27T11:08:42.377Z,32.63
2018-06-27T11:09:42.724Z,31.43
2018-06-27T11:10:43.142Z,31.21
2018-06-27T11:11:42.518Z,31.35
2018-06-27T11:12:45.026Z,31.76
2018-06-27T11:13:42.411Z,32.07
2018-06-27T11:14:42.405Z,32.22
2018-06-27T11:15:42.404Z,31.99
2018-06-27T11:16:42.657Z,32.23
2018-06-27T11:17:42.394Z,32.40
2018-06-27T11:18:42.392Z,32.26
2018-06-27T11:19:42.401Z,32.23
2018-06-27T11:20:43.119Z,32.44
2018-06-27T11:21:42.422Z,32.67
2018-06-27T11:22:42.427Z,32.74
2018-06-27T11:23:42.405Z,32.45
2018-06-27T11:24:42.418Z,32.23
2018-06-27T11:25:42.418Z,32.38
2018-06-27T11:26:42.436Z,32.35
2018-06-27T11:27:42.442Z,32.40
2018-06-27T11:28:42.416Z,32.59
2018-06-27T11:29:42.413Z,32.84
2018-06-27T11:30:42.442Z,33.03
2018-06-27T11:31:42.484Z,33.12
2018-06-27T11:32:42.519Z,33.34
2018-06-27T11:33:42.426Z,33.34
2018-06-27T11:34:42.429Z,33.16
2018-06-27T11:35:42.442Z,32.97
2018-06-27T11:36:42.444Z,32.41
2018-06-27T11:37:42.568Z,32.35
2018-06-27T11:38:42.487Z,32.14
2018-06-27T11:39:42.458Z,31.23
2018-06-27T11:40:42.453Z,30.42
2018-06-27T11:41:42.461Z,30.77
2018-06-27T11:42:42.474Z,31.02
2018-06-27T11:43:42.454Z,31.32
2018-06-27T11:44:42.450Z,31.69
2018-06-27T11:45:42.466Z,31.66
2018-06-27T11:46:42.464Z,31.96
2018-06-27T11:47:42.450Z,31.46
2018-06-27T11:48:42.456Z,30.82
2018-06-27T11:49:42.469Z,30.84
2018-06-27T11:50:42.455Z,30.97
2018-06-27T11:51:42.460Z,30.46
2018-06-27T11:52:42.482Z,30.22
2018-06-27T11:53:42.459Z,29.95
2018-06-27T11:54:42.567Z,30.37
2018-06-27T11:55:42.462Z,30.94
2018-06-27T11:56:42.460Z,31.20
2018-06-27T11:57:42.452Z,31.69
2018-06-27T11:58:42.453Z,31.86
2018-06-27T11:59:42.478Z,31.89
2018-06-27T12:00:42.479Z,32.23
2018-06-27T12:01:42.488Z,32.30
2018-06-27T12:02:42.549Z,32.23
2018-06-27T12:03:42.492Z,32.10
2018-06-27T12:04:42.466Z,32.14
2018-06-27T12:05:42.469Z,32.08
2018-06-27T12:06:42.489Z,32.06
2018-06-27T12:07:42.475Z,31.76
2018-06-27T12:08:42.474Z,31.62
2018-06-27T12:09:42.506Z,31.69
2018-06-27T12:10:42.469Z,31.23
2018-06-27T12:11:42.478Z,30.83
2018-06-27T12:12:42.487Z,30.35
2018-06-27T12:13:43.508Z,29.78
2018-06-27T12:14:42.475Z,29.94
2018-06-27T12:15:42.496Z,30.01
2018-06-27T12:16:42.472Z,30.45
2018-06-27T12:17:42.476Z,30.72
2018-06-27T12:18:42.476Z,30.80
2018-06-27T12:19:42.484Z,30.99
2018-06-27T12:20:42.481Z,31.12
2018-06-27T12:21:42.492Z,31.28
2018-06-27T12:22:42.469Z,31.43
2018-06-27T12:23:42.482Z,31.56
2018-06-27T12:24:42.466Z,31.81
2018-06-27T12:25:42.467Z,31.26
2018-06-27T12:26:43.513Z,31.23
2018-06-27T12:27:42.473Z,31.36
2018-06-27T12:28:42.481Z,30.51
2018-06-27T12:29:42.472Z,29.82
2018-06-27T12:30:42.476Z,29.70
2018-06-27T12:31:42.495Z,29.49
2018-06-27T12:32:42.472Z,29.24
2018-06-27T12:33:42.475Z,29.52
2018-06-27T12:34:42.471Z,29.67
2018-06-27T12:35:42.475Z,29.98
2018-06-27T12:36:42.485Z,30.19
2018-06-27T12:37:42.488Z,30.43
2018-06-27T12:38:42.543Z,30.51
2018-06-27T12:39:42.474Z,30.60
2018-06-27T12:40:42.466Z,30.39
2018-06-27T12:41:42.490Z,29.94
2018-06-27T12:42:42.470Z,29.90
2018-06-27T12:43:42.470Z,29.97
2018-06-27T12:44:42.462Z,30.07
2018-06-27T12:45:42.457Z,30.19
2018-06-27T12:46:42.457Z,30.60
2018-06-27T12:47:42.474Z,30.77
2018-06-27T12:48:42.469Z,31.07
2018-06-27T12:49:42.456Z,31.21
2018-06-27T12:50:42.456Z,30.98
2018-06-27T12:51:42.457Z,30.65
2018-06-27T12:52:42.475Z,30.23